Map

Track Data

SID SEASON NUMBER BASIN SUBBASIN NAME ISO_TIME NATURE LAT LON WMO_WIND WMO_PRES WMO_AGENCY TRACK_TYPE DIST2LAND LANDFALL IFLAG USA_AGENCY USA_ATCF_ID USA_LAT USA_LON USA_RECORD USA_STATUS USA_WIND USA_PRES USA_SSHS USA_R34_NE USA_R34_SE USA_R34_SW USA_R34_NW USA_R50_NE USA_R50_SE USA_R50_SW USA_R50_NW USA_R64_NE USA_R64_SE USA_R64_SW USA_R64_NW USA_POCI USA_ROCI USA_RMW USA_EYE TOKYO_LAT TOKYO_LON TOKYO_GRADE TOKYO_WIND TOKYO_PRES TOKYO_R50_DIR TOKYO_R50_LONG TOKYO_R50_SHORT TOKYO_R30_DIR TOKYO_R30_LONG TOKYO_R30_SHORT TOKYO_LAND CMA_LAT CMA_LON CMA_CAT CMA_WIND CMA_PRES HKO_LAT HKO_LON HKO_CAT HKO_WIND HKO_PRES NEWDELHI_LAT NEWDELHI_LON NEWDELHI_GRADE NEWDELHI_WIND NEWDELHI_PRES NEWDELHI_CI NEWDELHI_DP NEWDELHI_POCI REUNION_LAT REUNION_LON REUNION_TYPE REUNION_WIND REUNION_PRES REUNION_TNUM REUNION_CI REUNION_RMW REUNION_R34_NE REUNION_R34_SE REUNION_R34_SW REUNION_R34_NW REUNION_R50_NE REUNION_R50_SE REUNION_R50_SW REUNION_R50_NW REUNION_R64_NE REUNION_R64_SE REUNION_R64_SW REUNION_R64_NW BOM_LAT BOM_LON BOM_TYPE BOM_WIND BOM_PRES BOM_TNUM BOM_CI BOM_RMW BOM_R34_NE BOM_R34_SE BOM_R34_SW BOM_R34_NW BOM_R50_NE BOM_R50_SE BOM_R50_SW BOM_R50_NW BOM_R64_NE BOM_R64_SE BOM_R64_SW BOM_R64_NW BOM_ROCI BOM_POCI BOM_EYE BOM_POS_METHOD BOM_PRES_METHOD NADI_LAT NADI_LON NADI_CAT NADI_WIND NADI_PRES WELLINGTON_LAT WELLINGTON_LON WELLINGTON_WIND WELLINGTON_PRES DS824_LAT DS824_LON DS824_STAGE DS824_WIND DS824_PRES TD9636_LAT TD9636_LON TD9636_STAGE TD9636_WIND TD9636_PRES TD9635_LAT TD9635_LON TD9635_WIND TD9635_PRES TD9635_ROCI NEUMANN_LAT NEUMANN_LON NEUMANN_CLASS NEUMANN_WIND NEUMANN_PRES MLC_LAT MLC_LON MLC_CLASS MLC_WIND MLC_PRES USA_GUST BOM_GUST BOM_GUST_PER REUNION_GUST REUNION_GUST_PER USA_SEAHGT USA_SEARAD_NE USA_SEARAD_SE USA_SEARAD_SW USA_SEARAD_NW STORM_SPEED STORM_DIR
1894275N14134 1894 46 WP MM NOT_NAMED 1894-10-01 16:00:00 NR 13.6000 133.700 main 902 691 __________O___ -1 13.6000 133.700 7 64 282
1894275N14134 1894 46 WP MM NOT_NAMED 1894-10-01 18:00:00 NR 14.0476 131.565 main 691 428 __________P___ -1 14.0476 131.565 7 62 282
1894275N14134 1894 46 WP MM NOT_NAMED 1894-10-01 21:00:00 NR 14.6572 128.475 main 428 201 __________P___ -1 14.6572 128.475 7 58 281
1894275N14134 1894 46 WP MM NOT_NAMED 1894-10-02 00:00:00 NR 15.1562 125.729 main 201 151 __________P___ -1 15.1562 125.729 7 48 280
1894275N14134 1894 46 WP MM NOT_NAMED 1894-10-02 03:00:00 NR 15.5152 123.558 main 163 117 __________P___ -1 15.5152 123.558 7 40 280
1894275N14134 1894 46 WP MM NOT_NAMED 1894-10-02 04:00:00 NR 15.6000 123.000 main 108 39 __________O___ -1 15.6000 123.000 3 27 279
1894275N14134 1894 46 WP MM NOT_NAMED 1894-10-02 06:00:00 NR 15.7179 122.157 main 39 0 __________P___ -1 15.7179 122.157 3 18 278
1894275N14134 1894 46 WP MM NOT_NAMED 1894-10-02 09:00:00 NR 15.8028 121.438 main 0 0 __________P___ -1 15.8028 121.438 3 10 277
1894275N14134 1894 46 WP MM NOT_NAMED 1894-10-02 12:00:00 NR 15.8350 121.131 main 0 0 __________P___ -1 15.8350 121.131 3 5 279
1894275N14134 1894 46 WP MM NOT_NAMED 1894-10-02 15:00:00 NR 15.8749 120.969 main 0 0 __________P___ -1 15.8749 120.969 3 3 286
1894275N14134 1894 46 WP MM NOT_NAMED 1894-10-02 16:00:00 NR 15.9000 120.900 main 0 0 __________O___ -1 15.9000 120.900 4 9 286
1894275N14134 1894 46 WP MM NOT_NAMED 1894-10-02 18:00:00 NR 15.9941 120.545 main 0 0 __________P___ -1 15.9941 120.545 4 11 287
1894275N14134 1894 46 WP MM NOT_NAMED 1894-10-02 21:00:00 NR 16.1668 120.012 main 10 0 __________P___ -1 16.1668 120.012 4 11 290
1894275N14134 1894 46 WP MM NOT_NAMED 1894-10-03 00:00:00 NR 16.3743 119.484 main 33 33 __________P___ -1 16.3743 119.484 4 11 294
1894275N14134 1894 46 WP MM NOT_NAMED 1894-10-03 03:00:00 NR 16.6137 118.968 main 91 101 __________P___ -1 16.6137 118.968 4 11 296
1894275N14134 1894 46 WP MM NOT_NAMED 1894-10-03 04:00:00 NR 16.7000 118.800 main 115 115 __________O___ -1 16.7000 118.800 4 11 298
1894275N14134 1894 46 WP MM NOT_NAMED 1894-10-03 06:00:00 NR 16.8663 118.474 main 153 163 __________P___ -1 16.8663 118.474 4 11 300
1894275N14134 1894 46 WP MM NOT_NAMED 1894-10-03 09:00:00 NR 17.1410 117.998 main 211 216 __________P___ -1 17.1410 117.998 4 11 303
1894275N14134 1894 46 WP MM NOT_NAMED 1894-10-03 12:00:00 NR 17.4460 117.530 main 274 279 __________P___ -1 17.4460 117.530 4 11 306
1894275N14134 1894 46 WP MM NOT_NAMED 1894-10-03 15:00:00 NR 17.7815 117.059 main 332 341 __________P___ -1 17.7815 117.059 4 11 307
1894275N14134 1894 46 WP MM NOT_NAMED 1894-10-03 16:00:00 NR 17.9000 116.900 main 356 356 __________O___ -1 17.9000 116.900 4 12 308
1894275N14134 1894 46 WP MM NOT_NAMED 1894-10-03 18:00:00 NR 18.1598 116.544 main 407 407 __________P___ -1 18.1598 116.544 4 13 308
1894275N14134 1894 46 WP MM NOT_NAMED 1894-10-03 21:00:00 NR 18.5751 116.003 main 450 389 __________P___ -1 18.5751 116.003 4 13 310
1894275N14134 1894 46 WP MM NOT_NAMED 1894-10-04 00:00:00 NR 18.9929 115.486 main 389 332 __________P___ -1 18.9929 115.486 4 12 311
1894275N14134 1894 46 WP MM NOT_NAMED 1894-10-04 03:00:00 NR 19.3820 115.031 main 332 319 __________P___ -1 19.3820 115.031 4 11 312
1894275N14134 1894 46 WP MM NOT_NAMED 1894-10-04 04:00:00 NR 19.5000 114.900 main 319 293 __________O___ -1 19.5000 114.900 4 9 313
1894275N14134 1894 46 WP MM NOT_NAMED 1894-10-04 06:00:00 NR 19.6951 114.678 main 293 257 __________P___ -1 19.6951 114.678 4 8 315
1894275N14134 1894 46 WP MM NOT_NAMED 1894-10-04 09:00:00 NR 19.9503 114.416 main 257 227 __________P___ -1 19.9503 114.416 4 7 318
1894275N14134 1894 46 WP MM NOT_NAMED 1894-10-04 12:00:00 NR 20.1827 114.215 main 227 202 __________P___ -1 20.1827 114.215 4 6 324
1894275N14134 1894 46 WP MM NOT_NAMED 1894-10-04 15:00:00 NR 20.4172 114.051 main 202 187 __________P___ -1 20.4172 114.051 4 6 328
1894275N14134 1894 46 WP MM NOT_NAMED 1894-10-04 16:00:00 NR 20.5000 114.000 main 187 163 __________O___ -1 20.5000 114.000 4 7 327
1894275N14134 1894 46 WP MM NOT_NAMED 1894-10-04 18:00:00 NR 20.6912 113.862 main 163 123 __________P___ -1 20.6912 113.862 4 7 328
1894275N14134 1894 46 WP MM NOT_NAMED 1894-10-04 21:00:00 NR 20.9906 113.674 main 123 84 __________P___ -1 20.9906 113.674 4 7 332
1894275N14134 1894 46 WP MM NOT_NAMED 1894-10-05 00:00:00 NR 21.2970 113.521 main 84 53 __________P___ -1 21.2970 113.521 4 7 339
1894275N14134 1894 46 WP MM NOT_NAMED 1894-10-05 03:00:00 NR 21.6009 113.420 main 53 45 __________P___ -1 21.6009 113.420 4 6 344
1894275N14134 1894 46 WP MM NOT_NAMED 1894-10-05 04:00:00 NR 21.7000 113.400 main 45 24 __________O___ -1 21.7000 113.400 4 6 349
1894275N14134 1894 46 WP MM NOT_NAMED 1894-10-05 06:00:00 NR 21.8966 113.354 main 24 0 __________P___ -1 21.8966 113.354 4 6 353
1894275N14134 1894 46 WP MM NOT_NAMED 1894-10-05 09:00:00 NR 22.1855 113.334 main 0 0 __________P___ -1 22.1855 113.334 4 6 4
1894275N14134 1894 46 WP MM NOT_NAMED 1894-10-05 12:00:00 NR 22.4618 113.387 main 0 0 __________P___ -1 22.4618 113.387 4 6 19
1894275N14134 1894 46 WP MM NOT_NAMED 1894-10-05 15:00:00 NR 22.7194 113.530 main 0 0 __________P___ -1 22.7194 113.530 4 6 30
1894275N14134 1894 46 WP MM NOT_NAMED 1894-10-05 16:00:00 NR 22.8000 113.600 main 0 0 __________O___ -1 22.8000 113.600 4 7 44
1894275N14134 1894 46 WP MM NOT_NAMED 1894-10-05 18:00:00 NR 22.9526 113.775 main 0 0 __________P___ -1 22.9526 113.775 4 7 52
1894275N14134 1894 46 WP MM NOT_NAMED 1894-10-05 21:00:00 NR 23.1629 114.111 main 0 0 __________P___ -1 23.1629 114.111 4 8 59
1894275N14134 1894 46 WP MM NOT_NAMED 1894-10-06 00:00:00 NR 23.3566 114.512 main 0 0 __________P___ -1 23.3566 114.512 4 9 64
1894275N14134 1894 46 WP MM NOT_NAMED 1894-10-06 03:00:00 NR 23.5400 114.950 main 0 0 __________P___ -1 23.5400 114.950 4 9 66
1894275N14134 1894 46 WP MM NOT_NAMED 1894-10-06 04:00:00 NR 23.6000 115.100 main 0 __________O___ -1 23.6000 115.100 7 9 66

Digital Typhoon Data and Search

About IBTrACS Database

This database is a web-friendly format of International Best Track Archive for Climate Stewardship (IBTrACS), a global best track data archive curated by NOAA dating back to 1842.

Updated: 2021-10-08